アラート の空港の天気 - METARとTAF

Alert Airport ( CYLT / YLT ) - カナダ ヌナブト準州アラート
飛行場実況気象(Metar)
観測時間03/28 12:00 EDT (03/28 16:00 UTC)
風向・風速南西 12m/s 瞬間風速15m/s
視程10km以上
天気現象低い地吹雪
なし
気温-17℃
湿度65%
気圧1015.6hPa
METARCYLT 281600Z 22023G29KT 10SM DRSN SKC M17/M22 A2998 RMK OBS SENT VIA CYCX SLP156
過去の天気等 Google飛行場航空写真 Wunderground天気予報

過去48時間のMETAR

飛行場予報(TAF)
発表時間: 3/28 07:40 EDT (3/28 11:40 UTC)
予報対象時間: 28日8時 EDT ~ 28日20時 EDT
風向・風速南西 11m/s 瞬間風速 16m/s
視程10km以上
なし
28日8時 EDT ~ 28日14時 EDT に一時的に
28日14時 EDT から
風向・風速南西 15m/s 瞬間風速 21m/s
28日14時 EDT ~ 28日20時 EDT に一時的に
視程10km以上
天気現象運行に影響にある天気現象が終了
全天の4割程度の雲 雲底高度 4270m
28日14時 EDT から 確率 30% で
視程800m
天気現象高い地吹雪
全天を覆う雲 鉛直視程 60m
TAF CYLT 281140Z 2812/2824 22022G32KT P6SM SKC
TEMPO 2812/2818 2 1/2SM BLSN
FM281800 22030G40KT 2 1/2SM BLSN BKN140
TEMPO 2818/2824 P6SM NSW SCT140
PROB30 2818/2824 1/2SM BLSN VV002 RMK NXT FCST BY 281800Z